Time;durP1;ratioP1;P1;durP2;ratioP2;P2;SDS_P1;SDS_P2;PMS_P1;PMS_P2;Temp;Humidity;BMP_temperature;BMP_pressure;BME280_temperature;BME280_humidity;BME280_pressure;Samples;Min_cycle;Max_cycle;Signal;HPM_P1;HPM_P2
2021/04/12 00:01:08;;;;;;;6.87;3.47;;;;;;;;;;5064913;28;20021;-80
2021/04/12 00:03:46;;;;;;;9.67;3.50;;;;;;;;;;5050440;28;20028;-79
2021/04/12 00:06:29;;;;;;;8.80;3.40;;;;;;;;;;5048346;28;20040;-79
2021/04/12 00:09:02;;;;;;;11.00;3.67;;;;;;;;;;5050236;28;20511;-80
2021/04/12 00:11:47;;;;;;;9.07;3.70;;;;;;;;;;5051465;28;20448;-79
2021/04/12 00:14:24;;;;;;;8.57;3.40;;;;;;;;;;5050538;28;20051;-80
2021/04/12 00:16:55;;;;;;;10.13;4.53;;;;;;;;;;5050667;28;20029;-80
2021/04/12 00:19:34;;;;;;;11.47;3.63;;;;;;;;;;5050336;28;20025;-80
2021/04/12 00:21:59;;;;;;;12.37;4.20;;;;;;;;;;5050315;28;20103;-79
2021/04/12 00:24:34;;;;;;;9.40;3.33;;;;;;;;;;5051924;28;20044;-79
2021/04/12 00:27:20;;;;;;;6.90;4.00;;;;;;;;;;5055800;28;20025;-80
2021/04/12 00:29:56;;;;;;;10.43;3.57;;;;;;;;;;5053781;28;20485;-80
2021/04/12 00:32:33;;;;;;;12.07;4.50;;;;;;;;;;5054375;28;20044;-79
2021/04/12 00:35:09;;;;;;;10.07;3.87;;;;;;;;;;5055489;28;20048;-80
2021/04/12 00:37:49;;;;;;;15.17;4.10;;;;;;;;;;5055643;28;20112;-80
2021/04/12 00:40:40;;;;;;;13.97;4.90;;;;;;;;;;5054464;28;20029;-80
2021/04/12 00:43:21;;;;;;;12.40;5.03;;;;;;;;;;5066477;28;20444;-80
2021/04/12 00:46:01;;;;;;;13.87;5.03;;;;;;;;;;5054139;28;20102;-80
2021/04/12 00:48:40;;;;;;;8.97;4.40;;;;;;;;;;5055352;28;20365;-80
2021/04/12 00:51:05;;;;;;;9.60;4.00;;;;;;;;;;5054008;28;20021;-80
2021/04/12 00:53:33;;;;;;;8.93;4.00;;;;;;;;;;5070776;28;20380;-80
2021/04/12 00:56:04;;;;;;;11.77;4.27;;;;;;;;;;5053907;28;20107;-79
2021/04/12 00:58:50;;;;;;;12.27;4.80;;;;;;;;;;5070572;28;20033;-80
2021/04/12 01:01:28;;;;;;;15.57;5.80;;;;;;;;;;5055156;28;20028;-79
2021/04/12 01:04:12;;;;;;;12.20;5.67;;;;;;;;;;5055208;28;20028;-80
2021/04/12 01:06:52;;;;;;;11.07;5.30;;;;;;;;;;5053698;28;20009;-80
2021/04/12 01:09:29;;;;;;;12.00;5.20;;;;;;;;;;5070280;28;20133;-80
2021/04/12 01:11:57;;;;;;;12.07;4.70;;;;;;;;;;5054930;28;20025;-80
2021/04/12 01:14:43;;;;;;;10.30;4.50;;;;;;;;;;5053394;28;20542;-80
2021/04/12 01:17:11;;;;;;;9.93;4.90;;;;;;;;;;5053103;28;20067;-80
2021/04/12 01:20:05;;;;;;;11.80;4.67;;;;;;;;;;5053595;28;20358;-80
2021/04/12 01:22:30;;;;;;;11.57;4.80;;;;;;;;;;5063004;28;20028;-80
2021/04/12 01:24:59;;;;;;;9.87;4.27;;;;;;;;;;5053178;28;20027;-80
2021/04/12 01:27:43;;;;;;;9.90;4.27;;;;;;;;;;5053602;28;20603;-80
2021/04/12 01:30:27;;;;;;;10.47;4.57;;;;;;;;;;5054472;28;20025;-80
2021/04/12 01:33:07;;;;;;;10.63;4.30;;;;;;;;;;5053948;28;20045;-79
2021/04/12 01:35:51;;;;;;;13.40;4.60;;;;;;;;;;5041158;28;20017;-80
2021/04/12 01:38:22;;;;;;;9.80;3.77;;;;;;;;;;5053468;28;20045;-80
2021/04/12 01:41:08;;;;;;;10.13;4.00;;;;;;;;;;5054307;28;20036;-80
2021/04/12 01:43:49;;;;;;;11.20;4.30;;;;;;;;;;5054487;28;20487;-80
2021/04/12 01:46:30;;;;;;;9.87;4.07;;;;;;;;;;5052905;28;20534;-80
2021/04/12 01:48:59;;;;;;;7.40;3.93;;;;;;;;;;5069851;28;20051;-80
2021/04/12 01:51:24;;;;;;;11.90;4.33;;;;;;;;;;5052862;28;20017;-80
2021/04/12 01:54:08;;;;;;;7.07;3.70;;;;;;;;;;5047861;28;20052;-80
2021/04/12 01:56:52;;;;;;;8.70;4.13;;;;;;;;;;5083938;28;20108;-80
2021/04/12 01:59:21;;;;;;;8.70;4.20;;;;;;;;;;5052864;28;20106;-80
2021/04/12 02:01:52;;;;;;;8.53;3.80;;;;;;;;;;5067022;28;20025;-80
2021/04/12 02:04:17;;;;;;;14.33;4.30;;;;;;;;;;5052782;28;20029;-79
2021/04/12 02:06:43;;;;;;;7.07;3.90;;;;;;;;;;5052721;28;20032;-80
2021/04/12 02:09:25;;;;;;;6.80;3.83;;;;;;;;;;5069426;28;20045;-79
2021/04/12 02:12:09;;;;;;;10.90;4.70;;;;;;;;;;5042145;28;20045;-80
2021/04/12 02:14:38;;;;;;;10.87;4.57;;;;;;;;;;5052509;28;20178;-80
2021/04/12 02:17:04;;;;;;;9.57;4.33;;;;;;;;;;5052300;28;20029;-80
2021/04/12 02:19:32;;;;;;;6.83;3.87;;;;;;;;;;5053651;28;20044;-80
2021/04/12 02:22:16;;;;;;;10.43;4.03;;;;;;;;;;5052398;28;20021;-80
2021/04/12 02:24:49;;;;;;;7.87;3.90;;;;;;;;;;5069191;28;20116;-80
2021/04/12 02:27:18;;;;;;;12.17;4.37;;;;;;;;;;5054002;28;20147;-80
2021/04/12 02:29:52;;;;;;;12.70;3.67;;;;;;;;;;5053589;28;20021;-80
2021/04/12 02:32:17;;;;;;;10.47;4.03;;;;;;;;;;5053810;28;20017;-80
2021/04/12 02:34:45;;;;;;;8.87;3.70;;;;;;;;;;5054087;28;20464;-80
2021/04/12 02:37:10;;;;;;;11.40;4.27;;;;;;;;;;5052253;28;20611;-80
2021/04/12 02:39:35;;;;;;;8.17;4.13;;;;;;;;;;5069319;28;20070;-80
2021/04/12 02:42:12;;;;;;;9.25;4.18;;;;;;;;;;5053351;28;20097;-80
2021/04/12 02:44:40;;;;;;;8.17;3.70;;;;;;;;;;5050899;28;20027;-80
2021/04/12 02:47:11;;;;;;;8.90;4.13;;;;;;;;;;5051632;28;20021;-80
2021/04/12 02:49:55;;;;;;;6.60;3.70;;;;;;;;;;5050494;28;20456;-80
2021/04/12 02:52:27;;;;;;;7.93;4.07;;;;;;;;;;5051575;28;20021;-80
2021/04/12 02:55:13;;;;;;;8.50;3.90;;;;;;;;;;5050987;28;20025;-80
2021/04/12 02:57:58;;;;;;;7.63;3.77;;;;;;;;;;5037080;28;20039;-80
2021/04/12 03:00:41;;;;;;;8.40;3.97;;;;;;;;;;5050469;28;20484;-80
2021/04/12 03:03:09;;;;;;;8.80;4.00;;;;;;;;;;5051420;28;20017;-80
2021/04/12 03:05:43;;;;;;;10.60;3.80;;;;;;;;;;5049444;28;20115;-80
2021/04/12 03:08:27;;;;;;;10.53;3.77;;;;;;;;;;5050401;28;20021;-80
2021/04/12 03:10:57;;;;;;;9.90;4.00;;;;;;;;;;5066023;28;20025;-80
2021/04/12 03:13:40;;;;;;;13.57;3.87;;;;;;;;;;5051196;28;20029;-80
2021/04/12 03:16:14;;;;;;;9.87;4.13;;;;;;;;;;5050133;28;20026;-80
2021/04/12 03:18:58;;;;;;;7.67;3.87;;;;;;;;;;5052429;28;20017;-80
2021/04/12 03:21:52;;;;;;;7.83;3.50;;;;;;;;;;5051161;28;20021;-80
2021/04/12 03:24:27;;;;;;;7.60;3.73;;;;;;;;;;5052093;28;20024;-80
2021/04/12 03:27:03;;;;;;;7.03;3.20;;;;;;;;;;5052295;28;20056;-80
2021/04/12 03:29:37;;;;;;;7.10;4.00;;;;;;;;;;5051213;28;20098;-80
2021/04/12 03:32:21;;;;;;;7.73;3.80;;;;;;;;;;5051284;28;20021;-80
2021/04/12 03:34:49;;;;;;;13.07;4.10;;;;;;;;;;5050622;28;20016;-80
2021/04/12 03:37:17;;;;;;;9.23;3.93;;;;;;;;;;5051064;28;20025;-80
2021/04/12 03:39:45;;;;;;;8.07;3.73;;;;;;;;;;5064487;28;20192;-80
2021/04/12 03:42:13;;;;;;;10.70;4.57;;;;;;;;;;5050902;28;20387;-80
2021/04/12 03:44:58;;;;;;;15.33;4.47;;;;;;;;;;5067425;28;20207;-80
2021/04/12 03:47:25;;;;;;;10.73;3.90;;;;;;;;;;5052344;28;20360;-80
2021/04/12 03:50:01;;;;;;;6.83;3.67;;;;;;;;;;5050986;28;20448;-80
2021/04/12 03:52:45;;;;;;;9.23;4.20;;;;;;;;;;5050853;28;20032;-80
2021/04/12 03:55:19;;;;;;;10.53;4.40;;;;;;;;;;5050714;28;20025;-80
2021/04/12 03:58:00;;;;;;;9.70;4.20;;;;;;;;;;5052566;28;20032;-80
2021/04/12 04:00:43;;;;;;;10.20;4.57;;;;;;;;;;5049045;28;20369;-80
2021/04/12 04:03:28;;;;;;;8.60;4.30;;;;;;;;;;5065560;28;20029;-80
2021/04/12 04:06:05;;;;;;;8.00;4.47;;;;;;;;;;5065028;28;20104;-80
2021/04/12 04:08:33;;;;;;;10.27;4.83;;;;;;;;;;5049128;28;20476;-80
2021/04/12 04:11:17;;;;;;;8.23;4.50;;;;;;;;;;5049982;28;20013;-80
2021/04/12 04:13:42;;;;;;;7.63;4.70;;;;;;;;;;5048743;28;20553;-80
2021/04/12 04:16:19;;;;;;;17.00;5.37;;;;;;;;;;5049893;28;20044;-80
2021/04/12 04:19:05;;;;;;;11.57;4.50;;;;;;;;;;5049027;28;20025;-80
2021/04/12 04:21:33;;;;;;;7.10;4.30;;;;;;;;;;5067540;28;20028;-80
2021/04/12 04:24:18;;;;;;;9.13;3.97;;;;;;;;;;5049573;28;20099;-80
2021/04/12 04:26:44;;;;;;;9.50;4.73;;;;;;;;;;5037469;28;20029;-80
2021/04/12 04:29:32;;;;;;;8.80;4.27;;;;;;;;;;5050770;28;20032;-80
2021/04/12 04:32:09;;;;;;;11.50;5.00;;;;;;;;;;5056772;28;20477;-80
2021/04/12 04:34:53;;;;;;;10.60;5.03;;;;;;;;;;5051501;28;20353;-80
2021/04/12 04:37:33;;;;;;;10.60;5.27;;;;;;;;;;5052022;28;20029;-80
2021/04/12 04:39:58;;;;;;;7.77;4.90;;;;;;;;;;5051842;28;20020;-80
2021/04/12 04:42:42;;;;;;;11.27;5.22;;;;;;;;;;5049973;28;20457;-80
2021/04/12 04:45:22;;;;;;;8.00;5.37;;;;;;;;;;5051552;28;20747;-80
2021/04/12 04:48:12;;;;;;;14.40;5.07;;;;;;;;;;5051815;28;20013;-80
2021/04/12 04:50:50;;;;;;;8.53;5.03;;;;;;;;;;5050310;28;20041;-80
2021/04/12 04:53:24;;;;;;;10.43;5.30;;;;;;;;;;5044243;28;20385;-80
2021/04/12 04:55:49;;;;;;;11.90;5.47;;;;;;;;;;5050324;28;20029;-80
2021/04/12 04:58:30;;;;;;;8.32;5.00;;;;;;;;;;5050890;28;20469;-80
2021/04/12 05:00:58;;;;;;;9.67;5.87;;;;;;;;;;5050113;28;20047;-80
2021/04/12 05:03:23;;;;;;;10.77;6.53;;;;;;;;;;5051559;28;20092;-79
2021/04/12 05:06:07;;;;;;;12.23;6.10;;;;;;;;;;5051512;28;20485;-80
2021/04/12 05:08:42;;;;;;;10.13;5.90;;;;;;;;;;5050545;28;20037;-80
2021/04/12 05:11:17;;;;;;;8.10;5.30;;;;;;;;;;5051070;28;20017;-80
2021/04/12 05:14:01;;;;;;;9.90;5.20;;;;;;;;;;5055109;28;20492;-80
2021/04/12 05:16:29;;;;;;;11.97;6.20;;;;;;;;;;5053379;28;20469;-80
2021/04/12 05:19:30;;;;;;;15.10;5.77;;;;;;;;;;5047395;28;20017;-80
2021/04/12 05:21:55;;;;;;;9.10;5.27;;;;;;;;;;5051278;28;20115;-80
2021/04/12 05:24:26;;;;;;;14.87;5.73;;;;;;;;;;5052879;28;20513;-80
2021/04/12 05:27:11;;;;;;;14.33;6.17;;;;;;;;;;5054978;28;20112;-80
2021/04/12 05:29:36;;;;;;;8.90;5.30;;;;;;;;;;5053559;28;20021;-79
2021/04/12 05:32:07;;;;;;;10.50;5.87;;;;;;;;;;5055038;28;20043;-79
2021/04/12 05:34:35;;;;;;;8.23;5.33;;;;;;;;;;5053446;28;20024;-80
2021/04/12 05:37:09;;;;;;;12.00;5.80;;;;;;;;;;5053518;28;20029;-79
2021/04/12 05:39:35;;;;;;;9.67;5.43;;;;;;;;;;5069775;28;20051;-79
2021/04/12 05:42:09;;;;;;;11.23;6.25;;;;;;;;;;5053439;28;20665;-80
2021/04/12 05:44:34;;;;;;;13.90;5.77;;;;;;;;;;5066130;28;20016;-79
2021/04/12 05:47:17;;;;;;;11.55;5.60;;;;;;;;;;5053115;28;20536;-79
2021/04/12 05:49:58;;;;;;;10.83;5.93;;;;;;;;;;5054852;28;20116;-80
2021/04/12 05:52:26;;;;;;;11.93;5.67;;;;;;;;;;5053432;28;20040;-80
2021/04/12 05:54:58;;;;;;;8.30;5.40;;;;;;;;;;5052808;28;20108;-80
2021/04/12 05:57:49;;;;;;;12.57;6.17;;;;;;;;;;5052949;28;20025;-80
2021/04/12 06:00:33;;;;;;;12.13;5.90;;;;;;;;;;5078416;28;20029;-80
2021/04/12 06:02:58;;;;;;;10.63;5.93;;;;;;;;;;5052427;28;20021;-80
2021/04/12 06:05:29;;;;;;;10.02;5.47;;;;;;;;;;5048507;28;20032;-79
2021/04/12 06:08:00;;;;;;;12.53;5.47;;;;;;;;;;5049841;28;20024;-80
2021/04/12 06:10:38;;;;;;;9.53;5.80;;;;;;;;;;5050432;28;20108;-79
2021/04/12 06:13:21;;;;;;;12.87;6.23;;;;;;;;;;5041559;28;20121;-80
2021/04/12 06:16:05;;;;;;;12.73;6.60;;;;;;;;;;5042048;28;20368;-80
2021/04/12 06:18:30;;;;;;;13.40;5.90;;;;;;;;;;5050494;28;20025;-80
2021/04/12 06:21:14;;;;;;;11.57;6.17;;;;;;;;;;5042464;28;20024;-80
2021/04/12 06:23:57;;;;;;;13.17;5.60;;;;;;;;;;5045212;28;20013;-79
2021/04/12 06:26:41;;;;;;;10.10;4.93;;;;;;;;;;5045195;28;20028;-79
2021/04/12 06:29:06;;;;;;;10.83;5.50;;;;;;;;;;5042390;28;20049;-79
2021/04/12 06:31:50;;;;;;;9.23;5.63;;;;;;;;;;5045584;28;20053;-79
2021/04/12 06:34:15;;;;;;;7.30;5.27;;;;;;;;;;5051892;28;20052;-79
2021/04/12 06:36:41;;;;;;;9.50;5.30;;;;;;;;;;5045360;28;20053;-80
2021/04/12 06:39:25;;;;;;;11.77;5.23;;;;;;;;;;5048757;28;20021;-79
2021/04/12 06:41:50;;;;;;;7.83;5.13;;;;;;;;;;5049883;28;20403;-78
2021/04/12 06:44:18;;;;;;;10.13;5.10;;;;;;;;;;5049766;28;20132;-78
2021/04/12 06:47:01;;;;;;;11.57;4.60;;;;;;;;;;5051240;28;20473;-78
2021/04/12 06:49:45;;;;;;;11.97;5.57;;;;;;;;;;5051754;28;20017;-78
2021/04/12 06:52:30;;;;;;;9.50;5.00;;;;;;;;;;5055068;28;20033;-78
2021/04/12 06:55:05;;;;;;;9.97;4.80;;;;;;;;;;5046176;28;20456;-79
2021/04/12 06:57:44;;;;;;;7.00;4.40;;;;;;;;;;5045847;28;20036;-78
2021/04/12 07:00:18;;;;;;;18.33;4.60;;;;;;;;;;5045267;28;20101;-78
2021/04/12 07:03:02;;;;;;;8.83;4.40;;;;;;;;;;5045052;28;20771;-79
2021/04/12 07:05:39;;;;;;;10.40;4.47;;;;;;;;;;5051798;28;20025;-78
2021/04/12 07:08:17;;;;;;;10.53;4.63;;;;;;;;;;5052755;28;20427;-79
2021/04/12 07:10:51;;;;;;;8.30;4.17;;;;;;;;;;5051764;28;20021;-79
2021/04/12 07:13:22;;;;;;;12.17;4.30;;;;;;;;;;5051596;28;20039;-79
2021/04/12 07:16:06;;;;;;;8.93;3.93;;;;;;;;;;5052365;28;20370;-79
2021/04/12 07:18:51;;;;;;;5.83;3.80;;;;;;;;;;5048396;28;20036;-79
2021/04/12 07:21:36;;;;;;;7.93;3.73;;;;;;;;;;5050748;28;20136;-79
2021/04/12 07:24:19;;;;;;;10.60;3.90;;;;;;;;;;5052950;28;20049;-79
2021/04/12 07:27:00;;;;;;;7.93;3.50;;;;;;;;;;5039890;28;20071;-80
2021/04/12 07:29:43;;;;;;;9.73;3.30;;;;;;;;;;5052429;28;20021;-79
2021/04/12 07:32:08;;;;;;;6.17;3.10;;;;;;;;;;5051691;28;20021;-80
2021/04/12 07:34:43;;;;;;;5.80;2.73;;;;;;;;;;5051843;28;20074;-80
2021/04/12 07:37:11;;;;;;;7.30;2.80;;;;;;;;;;5050871;28;20495;-79
2021/04/12 07:39:39;;;;;;;5.27;2.43;;;;;;;;;;5052946;28;20025;-79
2021/04/12 07:42:07;;;;;;;7.53;2.50;;;;;;;;;;5052442;28;20437;-79
2021/04/12 07:44:51;;;;;;;6.70;2.37;;;;;;;;;;5050979;28;20128;-79
2021/04/12 07:47:35;;;;;;;5.53;2.53;;;;;;;;;;5040260;28;20028;-80
2021/04/12 07:50:15;;;;;;;4.27;2.17;;;;;;;;;;5050705;28;20021;-79
2021/04/12 07:53:19;;;;;;;6.00;2.20;;;;;;;;;;5050580;28;20100;-79
2021/04/12 07:55:44;;;;;;;3.33;1.57;;;;;;;;;;5030043;28;20022;-79
2021/04/12 07:58:09;;;;;;;5.03;1.70;;;;;;;;;;5030099;28;20025;-80
2021/04/12 08:00:53;;;;;;;3.70;1.55;;;;;;;;;;5034625;28;20025;-79
2021/04/12 08:03:37;;;;;;;2.97;1.60;;;;;;;;;;5040922;28;20089;-79
2021/04/12 08:06:20;;;;;;;4.50;1.50;;;;;;;;;;5050815;28;20017;-79
2021/04/12 08:09:16;;;;;;;4.70;1.20;;;;;;;;;;5051794;28;20464;-80
2021/04/12 08:12:00;;;;;;;3.20;1.30;;;;;;;;;;5073113;28;20075;-78
2021/04/12 08:14:51;;;;;;;5.27;1.00;;;;;;;;;;5050521;28;20738;-79
2021/04/12 08:17:25;;;;;;;3.63;1.10;;;;;;;;;;5051619;28;20432;-79
2021/04/12 08:20:02;;;;;;;2.17;1.00;;;;;;;;;;5037071;28;20017;-79
2021/04/12 08:22:28;;;;;;;3.57;0.90;;;;;;;;;;5051954;28;20108;-79
2021/04/12 08:24:56;;;;;;;3.60;1.00;;;;;;;;;;5050296;28;20545;-79
2021/04/12 08:27:40;;;;;;;5.77;1.20;;;;;;;;;;5060030;28;20026;-79
2021/04/12 08:30:31;;;;;;;5.00;1.00;;;;;;;;;;5038160;28;20455;-79
2021/04/12 08:32:59;;;;;;;7.77;1.20;;;;;;;;;;5042508;28;20120;-79
2021/04/12 08:35:37;;;;;;;5.23;0.80;;;;;;;;;;5050310;28;20009;-79
2021/04/12 08:38:15;;;;;;;8.13;1.00;;;;;;;;;;5066963;28;20033;-79
2021/04/12 08:40:43;;;;;;;5.27;1.03;;;;;;;;;;5048233;28;20136;-79
2021/04/12 08:43:25;;;;;;;6.83;1.03;;;;;;;;;;5050008;28;20025;-79
2021/04/12 08:46:10;;;;;;;6.15;1.23;;;;;;;;;;5052499;28;20024;-79
2021/04/12 08:49:05;;;;;;;6.03;1.43;;;;;;;;;;5054641;28;20024;-79
2021/04/12 08:51:49;;;;;;;3.37;1.40;;;;;;;;;;5055200;28;20032;-79
2021/04/12 08:54:14;;;;;;;4.70;1.93;;;;;;;;;;5055612;28;20104;-78
2021/04/12 08:56:58;;;;;;;5.70;1.00;;;;;;;;;;5055484;28;20052;-79
2021/04/12 08:59:35;;;;;;;6.77;1.17;;;;;;;;;;5044881;28;20045;-78
2021/04/12 09:02:12;;;;;;;4.23;1.13;;;;;;;;;;5053710;28;20051;-78
2021/04/12 09:04:38;;;;;;;5.70;1.10;;;;;;;;;;5054530;28;20013;-79
2021/04/12 09:07:09;;;;;;;5.33;1.30;;;;;;;;;;5046919;28;20092;-79
2021/04/12 09:09:37;;;;;;;8.90;1.30;;;;;;;;;;5052787;28;20116;-78
2021/04/12 09:12:08;;;;;;;6.87;1.80;;;;;;;;;;5055481;28;20116;-79
2021/04/12 09:14:45;;;;;;;10.10;2.23;;;;;;;;;;5052938;28;20028;-78
2021/04/12 09:17:23;;;;;;;8.70;2.30;;;;;;;;;;5046887;28;20502;-79
2021/04/12 09:20:00;;;;;;;6.53;2.30;;;;;;;;;;5053372;28;20036;-78
2021/04/12 09:22:48;;;;;;;10.63;2.80;;;;;;;;;;5053035;28;20486;-79
2021/04/12 09:25:31;;;;;;;8.17;2.80;;;;;;;;;;5058458;28;20021;-79
2021/04/12 09:28:09;;;;;;;9.40;2.90;;;;;;;;;;5053716;28;20029;-78
2021/04/12 09:30:40;;;;;;;6.90;2.50;;;;;;;;;;5052684;28;20468;-78
2021/04/12 09:33:35;;;;;;;7.07;2.60;;;;;;;;;;5053332;28;20021;-78
2021/04/12 09:36:18;;;;;;;8.00;2.47;;;;;;;;;;5054626;28;20748;-79
2021/04/12 09:38:46;;;;;;;4.37;2.20;;;;;;;;;;5043292;28;20025;-79
2021/04/12 09:41:30;;;;;;;8.87;1.73;;;;;;;;;;5054610;28;20017;-77
2021/04/12 09:44:15;;;;;;;5.53;2.20;;;;;;;;;;5043211;28;20381;-77
2021/04/12 09:46:49;;;;;;;3.30;1.77;;;;;;;;;;5054131;28;20031;-76
2021/04/12 09:49:32;;;;;;;2.27;1.80;;;;;;;;;;5054505;28;20032;-76
2021/04/12 09:52:09;;;;;;;5.13;1.83;;;;;;;;;;5052357;28;20045;-78
2021/04/12 09:54:43;;;;;;;10.03;2.17;;;;;;;;;;5051743;28;20100;-80
2021/04/12 09:57:27;;;;;;;6.40;1.83;;;;;;;;;;5052424;28;20048;-80
2021/04/12 10:00:02;;;;;;;8.90;2.00;;;;;;;;;;5061975;28;20089;-80
2021/04/12 10:02:43;;;;;;;5.27;1.80;;;;;;;;;;5056464;28;20025;-80
2021/04/12 10:05:21;;;;;;;6.57;2.30;;;;;;;;;;5054130;28;20100;-80
2021/04/12 10:07:46;;;;;;;5.33;2.30;;;;;;;;;;5045414;28;20651;-80
2021/04/12 10:10:24;;;;;;;5.07;2.63;;;;;;;;;;5052341;28;20111;-81
2021/04/12 10:13:02;;;;;;;3.20;2.30;;;;;;;;;;5048550;28;20029;-80
2021/04/12 10:15:39;;;;;;;3.53;1.77;;;;;;;;;;5052114;28;20021;-81
2021/04/12 10:18:15;;;;;;;2.33;1.80;;;;;;;;;;5053437;28;20025;-81
2021/04/12 10:20:45;;;;;;;3.20;1.77;;;;;;;;;;5052631;28;20380;-81
2021/04/12 10:23:25;;;;;;;3.53;2.07;;;;;;;;;;5053502;28;20147;-81
2021/04/12 10:25:58;;;;;;;2.73;2.10;;;;;;;;;;5052353;28;20032;-81
2021/04/12 10:28:27;;;;;;;4.30;2.23;;;;;;;;;;5055773;28;20024;-81
2021/04/12 10:31:11;;;;;;;4.30;2.60;;;;;;;;;;5052233;28;20384;-81
2021/04/12 10:33:44;;;;;;;3.50;2.40;;;;;;;;;;5053383;28;20472;-81
2021/04/12 10:36:20;;;;;;;5.63;2.50;;;;;;;;;;5051607;28;20514;-81
2021/04/12 10:38:47;;;;;;;4.73;2.33;;;;;;;;;;5051826;28;20025;-82
2021/04/12 10:41:12;;;;;;;5.53;2.53;;;;;;;;;;5052076;28;20028;-82
2021/04/12 10:43:49;;;;;;;4.80;2.80;;;;;;;;;;5052151;28;20021;-81
2021/04/12 10:46:18;;;;;;;5.90;2.63;;;;;;;;;;5052203;28;20017;-82
2021/04/12 10:48:43;;;;;;;5.07;3.37;;;;;;;;;;5051044;28;20033;-82
2021/04/12 10:51:09;;;;;;;8.90;3.03;;;;;;;;;;5051648;28;20496;-82
2021/04/12 10:53:37;;;;;;;5.90;3.33;;;;;;;;;;5054772;28;20139;-82
2021/04/12 10:56:05;;;;;;;5.97;3.40;;;;;;;;;;5052900;28;20024;-81
2021/04/12 10:58:42;;;;;;;6.93;4.30;;;;;;;;;;5051021;28;20024;-81
2021/04/12 11:01:18;;;;;;;6.53;3.83;;;;;;;;;;5051704;28;20507;-81
2021/04/12 11:03:48;;;;;;;4.97;3.30;;;;;;;;;;5052708;28;20017;-81
2021/04/12 11:06:24;;;;;;;9.70;4.10;;;;;;;;;;5034559;28;20022;-81
2021/04/12 11:08:55;;;;;;;6.50;3.40;;;;;;;;;;5045536;28;20108;-82
2021/04/12 11:11:29;;;;;;;6.33;3.47;;;;;;;;;;5045004;28;20476;-81
2021/04/12 11:13:59;;;;;;;8.37;4.10;;;;;;;;;;5051216;28;20380;-81
2021/04/12 11:16:42;;;;;;;6.50;4.33;;;;;;;;;;5053958;28;20021;-81
2021/04/12 11:19:17;;;;;;;9.35;4.88;;;;;;;;;;5051040;28;20025;-81
2021/04/12 11:21:42;;;;;;;6.17;4.50;;;;;;;;;;5050662;28;20611;-81
2021/04/12 11:24:27;;;;;;;7.32;4.57;;;;;;;;;;5050982;28;20032;-81
2021/04/12 11:27:11;;;;;;;7.73;5.00;;;;;;;;;;5051168;28;20017;-81
2021/04/12 11:29:39;;;;;;;5.87;4.30;;;;;;;;;;5081343;28;20032;-81
2021/04/12 11:32:13;;;;;;;7.13;4.97;;;;;;;;;;5050323;28;20104;-81
2021/04/12 11:34:41;;;;;;;12.87;4.63;;;;;;;;;;5054771;28;20021;-81
2021/04/12 11:37:25;;;;;;;8.67;4.93;;;;;;;;;;5051024;28;20049;-81
2021/04/12 11:39:54;;;;;;;8.30;5.20;;;;;;;;;;5052309;28;20175;-82
2021/04/12 11:42:21;;;;;;;8.23;4.50;;;;;;;;;;5051337;28;20021;-81
2021/04/12 11:44:46;;;;;;;13.20;6.27;;;;;;;;;;5050815;28;20021;-82
2021/04/12 11:47:30;;;;;;;8.73;4.80;;;;;;;;;;5050975;28;20021;-81
2021/04/12 11:49:55;;;;;;;12.40;5.80;;;;;;;;;;5067725;28;20021;-81
2021/04/12 11:52:24;;;;;;;10.95;5.60;;;;;;;;;;5050366;28;20025;-81
2021/04/12 11:54:52;;;;;;;8.40;5.50;;;;;;;;;;5050394;28;20465;-82
2021/04/12 11:57:17;;;;;;;12.23;6.00;;;;;;;;;;5048668;28;20385;-81
2021/04/12 11:59:42;;;;;;;9.40;5.70;;;;;;;;;;5050498;28;20013;-81
2021/04/12 12:02:14;;;;;;;8.87;6.57;;;;;;;;;;5050137;28;20422;-81
2021/04/12 12:04:39;;;;;;;15.70;6.77;;;;;;;;;;5050664;28;20017;-81
2021/04/12 12:07:16;;;;;;;11.43;6.60;;;;;;;;;;5048653;28;20047;-81
2021/04/12 12:09:44;;;;;;;10.90;5.83;;;;;;;;;;5052760;28;20043;-81
2021/04/12 12:12:14;;;;;;;12.00;6.27;;;;;;;;;;5050684;28;20052;-81
2021/04/12 12:14:42;;;;;;;10.47;5.90;;;;;;;;;;5050311;28;20500;-81
2021/04/12 12:17:19;;;;;;;10.97;6.57;;;;;;;;;;5048179;28;20055;-81
2021/04/12 12:19:46;;;;;;;10.67;6.37;;;;;;;;;;5066877;28;20020;-81
2021/04/12 12:22:24;;;;;;;9.77;7.00;;;;;;;;;;5071871;28;20023;-82
2021/04/12 12:25:08;;;;;;;14.20;7.40;;;;;;;;;;5071892;28;20032;-82
2021/04/12 12:27:35;;;;;;;8.63;6.17;;;;;;;;;;5056791;28;20107;-82
2021/04/12 12:30:10;;;;;;;7.77;5.60;;;;;;;;;;5056995;28;20781;-82
2021/04/12 12:32:48;;;;;;;7.77;5.50;;;;;;;;;;5057356;28;20099;-82
2021/04/12 12:35:17;;;;;;;6.80;4.00;;;;;;;;;;5045296;28;20029;-82
2021/04/12 12:37:57;;;;;;;7.10;4.57;;;;;;;;;;5057231;28;20039;-82
2021/04/12 12:40:28;;;;;;;6.73;3.57;;;;;;;;;;5045756;28;20405;-82
2021/04/12 12:43:00;;;;;;;4.07;3.10;;;;;;;;;;5056971;28;20476;-82
2021/04/12 12:45:25;;;;;;;;;;;;;;;;;;5052365;28;20025;-82
2021/04/12 12:47:53;;;;;;;7.05;3.75;;;;;;;;;;5056494;28;19915;-82
2021/04/12 12:50:21;;;;;;;6.53;3.10;;;;;;;;;;5057870;28;20024;-82
2021/04/12 12:53:05;;;;;;;7.40;3.17;;;;;;;;;;5058069;28;20021;-82
2021/04/12 12:55:33;;;;;;;5.30;3.50;;;;;;;;;;5073719;28;20800;-82
2021/04/12 12:58:05;;;;;;;7.13;3.73;;;;;;;;;;5058337;28;20457;-81
2021/04/12 13:00:34;;;;;;;6.97;3.90;;;;;;;;;;5056964;28;20021;-82
2021/04/12 13:02:59;;;;;;;7.67;4.70;;;;;;;;;;5067987;28;20083;-82
2021/04/12 13:05:32;;;;;;;7.63;4.87;;;;;;;;;;5057027;28;20029;-82
2021/04/12 13:08:08;;;;;;;7.83;5.57;;;;;;;;;;5044137;28;20487;-82
2021/04/12 13:10:36;;;;;;;8.17;5.30;;;;;;;;;;5056191;28;20108;-83
2021/04/12 13:13:11;;;;;;;8.43;5.53;;;;;;;;;;5054011;28;20503;-82
2021/04/12 13:15:37;;;;;;;9.43;5.87;;;;;;;;;;5056493;28;20017;-83
2021/04/12 13:18:20;;;;;;;8.43;6.00;;;;;;;;;;5058124;28;20024;-83
2021/04/12 13:20:51;;;;;;;9.27;5.73;;;;;;;;;;5056599;28;20017;-82
2021/04/12 13:23:19;;;;;;;8.33;6.00;;;;;;;;;;5073445;28;20078;-82
2021/04/12 13:25:51;;;;;;;12.30;6.03;;;;;;;;;;5056697;28;20439;-82
2021/04/12 13:28:16;;;;;;;;;;;;;;;;;;5055640;28;20056;-82
2021/04/12 13:30:46;;;;;;;9.13;6.23;;;;;;;;;;5047742;28;19915;-82
2021/04/12 13:33:23;;;;;;;7.40;5.90;;;;;;;;;;5051070;28;20306;-82
2021/04/12 13:35:53;;;;;;;8.90;6.60;;;;;;;;;;5054436;28;20495;-81
2021/04/12 13:38:21;;;;;;;11.27;7.47;;;;;;;;;;5053052;28;20025;-81
2021/04/12 13:40:55;;;;;;;9.53;7.07;;;;;;;;;;5054636;28;20021;-81
2021/04/12 13:43:27;;;;;;;11.93;7.40;;;;;;;;;;5054356;28;20052;-81
2021/04/12 13:45:52;;;;;;;11.23;7.18;;;;;;;;;;5053203;28;20541;-81
2021/04/12 13:48:17;;;;;;;12.70;7.33;;;;;;;;;;5065577;28;20033;-81
2021/04/12 13:50:51;;;;;;;9.80;5.98;;;;;;;;;;5043290;28;20476;-81
2021/04/12 13:53:22;;;;;;;9.70;6.90;;;;;;;;;;5051015;28;20060;-79
2021/04/12 13:56:14;;;;;;;10.43;6.90;;;;;;;;;;5041350;28;20166;-79
2021/04/12 13:58:40;;;;;;;10.83;7.47;;;;;;;;;;5042163;28;20423;-79
2021/04/12 14:01:11;;;;;;;8.17;6.17;;;;;;;;;;5052418;28;20388;-79
2021/04/12 14:03:39;;;;;;;9.77;6.50;;;;;;;;;;5046353;28;20218;-79
2021/04/12 14:06:04;;;;;;;10.30;6.77;;;;;;;;;;5051461;28;20464;-79
2021/04/12 14:08:33;;;;;;;12.13;6.60;;;;;;;;;;5062689;28;20024;-79
2021/04/12 14:11:01;;;;;;;13.27;7.87;;;;;;;;;;5040850;28;20104;-79
2021/04/12 14:13:27;;;;;;;12.37;7.67;;;;;;;;;;5052142;28;20060;-79
2021/04/12 14:15:56;;;;;;;12.10;7.60;;;;;;;;;;5045507;28;20037;-79
2021/04/12 14:18:38;;;;;;;14.30;8.40;;;;;;;;;;5052550;28;20029;-79
2021/04/12 14:21:04;;;;;;;;;;;;;;;;;;5051618;28;20152;-79
2021/04/12 14:23:31;;;;;;;11.23;7.87;;;;;;;;;;5072287;28;20011;-79
2021/04/12 14:26:01;;;;;;;11.10;7.43;;;;;;;;;;5044427;28;20293;-79
2021/04/12 14:28:29;;;;;;;10.87;6.83;;;;;;;;;;5049500;28;20036;-79
2021/04/12 14:30:56;;;;;;;10.57;7.67;;;;;;;;;;5061719;28;20036;-79
2021/04/12 14:33:26;;;;;;;14.90;7.23;;;;;;;;;;5048913;28;20036;-81
2021/04/12 14:36:04;;;;;;;13.60;7.87;;;;;;;;;;5046311;28;20040;-81
2021/04/12 14:38:30;;;;;;;12.07;7.60;;;;;;;;;;5049222;28;20021;-81
2021/04/12 14:41:03;;;;;;;13.30;7.83;;;;;;;;;;5041561;28;20392;-81
2021/04/12 14:43:30;;;;;;;11.73;6.70;;;;;;;;;;5047545;28;20053;-81
2021/04/12 14:46:04;;;;;;;10.40;6.83;;;;;;;;;;5041561;28;20099;-79
2021/04/12 14:48:33;;;;;;;11.43;7.33;;;;;;;;;;5052035;28;20021;-79
2021/04/12 14:51:00;;;;;;;9.93;7.57;;;;;;;;;;5064667;28;20380;-79
2021/04/12 14:53:29;;;;;;;11.17;7.70;;;;;;;;;;5052105;28;20025;-79
2021/04/12 14:56:00;;;;;;;13.53;7.63;;;;;;;;;;5041196;28;20021;-79
2021/04/12 14:58:36;;;;;;;10.40;7.30;;;;;;;;;;5051909;28;20031;-79
2021/04/12 15:01:03;;;;;;;8.98;6.30;;;;;;;;;;5052654;28;20032;-80
2021/04/12 15:03:31;;;;;;;10.90;6.57;;;;;;;;;;5052982;28;20092;-80
2021/04/12 15:06:02;;;;;;;12.87;6.37;;;;;;;;;;5052712;28;20028;-80
2021/04/12 15:08:30;;;;;;;12.33;6.80;;;;;;;;;;5051161;28;20025;-79
2021/04/12 15:11:04;;;;;;;11.43;6.57;;;;;;;;;;5050895;28;20037;-79
2021/04/12 15:13:53;;;;;;;16.53;7.27;;;;;;;;;;5051541;28;20037;-81
2021/04/12 15:16:26;;;;;;;10.40;7.70;;;;;;;;;;5069585;28;20392;-81
2021/04/12 15:18:57;;;;;;;9.07;5.70;;;;;;;;;;5052096;28;20037;-81
2021/04/12 15:21:31;;;;;;;12.10;5.97;;;;;;;;;;5052430;28;20025;-81
2021/04/12 15:24:02;;;;;;;11.77;6.07;;;;;;;;;;5051550;28;20029;-81